Time;durP1;ratioP1;P1;durP2;ratioP2;P2;SDS_P1;SDS_P2;PMS_P1;PMS_P2;Temp;Humidity;BMP_temperature;BMP_pressure;BME280_temperature;BME280_humidity;BME280_pressure;Samples;Min_cycle;Max_cycle;Signal;HPM_P1;HPM_P2
2021/09/19 00:00:33;;;;;;;;;;;17.20;78.30;;;;;;5075785;28;20279;-69
2021/09/19 00:03:00;;;;;;;;;;;17.20;78.30;;;;;;5075353;28;19916;-69
2021/09/19 00:05:26;;;;;;;;;;;17.30;78.60;;;;;;5075172;28;20380;-69
2021/09/19 00:07:53;;;;;;;;;;;17.30;78.90;;;;;;5074789;28;20282;-70
2021/09/19 00:10:20;;;;;;;;;;;17.20;77.90;;;;;;5075133;28;19909;-69
2021/09/19 00:12:46;;;;;;;;;;;17.20;79.20;;;;;;5074479;28;19915;-70
2021/09/19 00:15:15;;;;;;;;;;;17.40;77.90;;;;;;5075062;28;20268;-68
2021/09/19 00:17:42;;;;;;;;;;;17.40;77.30;;;;;;5074612;28;20010;-70
2021/09/19 00:20:10;;;;;;;;;;;17.40;77.50;;;;;;5073484;28;19908;-69
2021/09/19 00:22:36;;;;;;;;;;;17.30;79.00;;;;;;5074821;28;19912;-68
2021/09/19 00:25:04;;;;;;;;;;;17.40;76.60;;;;;;5074775;28;19931;-69
2021/09/19 00:27:31;;;;;;;;;;;17.40;76.20;;;;;;5073744;28;19909;-67
2021/09/19 00:29:58;;;;;;;;;;;17.50;78.90;;;;;;5074787;28;19917;-70
2021/09/19 00:32:25;;;;;;;;;;;17.50;78.30;;;;;;5074623;28;19930;-70
2021/09/19 00:34:51;;;;;;;;;;;17.60;78.00;;;;;;5074535;28;20367;-69
2021/09/19 00:37:18;;;;;;;;;;;17.80;77.10;;;;;;5074355;28;20351;-69
2021/09/19 00:39:45;;;;;;;;;;;18.10;76.00;;;;;;5074185;28;19947;-70
2021/09/19 00:42:11;;;;;;;;;;;18.10;75.30;;;;;;5073432;28;19912;-70
2021/09/19 00:44:38;;;;;;;;;;;18.10;74.20;;;;;;5074407;28;19908;-70
2021/09/19 00:47:05;;;;;;;;;;;18.20;71.90;;;;;;5074089;28;19951;-70
2021/09/19 00:49:31;;;;;;;;;;;18.30;73.10;;;;;;5073697;28;19921;-70
2021/09/19 00:52:04;;;;;;;;;;;18.30;73.90;;;;;;5073942;28;19954;-70
2021/09/19 00:54:37;;;;;;;;;;;18.20;72.60;;;;;;5074183;28;19991;-68
2021/09/19 00:57:06;;;;;;;;;;;18.30;72.20;;;;;;5073626;28;20099;-70
2021/09/19 00:59:35;;;;;;;;;;;18.40;72.80;;;;;;5073984;28;19919;-70
2021/09/19 01:02:02;;;;;;;;;;;18.50;72.90;;;;;;5074124;28;19916;-69
2021/09/19 01:04:28;;;;;;;;;;;19.00;72.20;;;;;;5074034;28;19934;-69
2021/09/19 01:06:55;;;;;;;;;;;19.20;71.40;;;;;;5106311;28;19924;-69
2021/09/19 01:09:22;;;;;;;;;;;19.10;71.70;;;;;;5074027;28;19908;-69
2021/09/19 01:11:49;;;;;;;;;;;19.70;70.50;;;;;;5072859;28;19913;-69
2021/09/19 01:14:16;;;;;;;;;;;20.10;73.10;;;;;;5073610;28;19915;-70
2021/09/19 01:16:43;;;;;;;;;;;20.90;70.60;;;;;;5073658;28;19913;-69
2021/09/19 01:19:14;;;;;;;;;;;21.30;68.40;;;;;;5073618;28;19913;-69
2021/09/19 01:21:41;;;;;;;;;;;21.50;67.70;;;;;;5073409;28;19940;-68
2021/09/19 01:24:09;;;;;;;;;;;21.00;67.20;;;;;;5073473;28;19916;-70
2021/09/19 01:26:36;;;;;;;;;;;20.30;65.90;;;;;;5073117;28;19909;-69
2021/09/19 01:29:03;;;;;;;;;;;20.00;68.20;;;;;;5073509;28;19909;-68
2021/09/19 01:31:30;;;;;;;;;;;20.40;66.40;;;;;;5076241;28;19921;-69
2021/09/19 01:33:56;;;;;;;;;;;20.10;67.40;;;;;;5075703;28;20427;-68
2021/09/19 01:36:24;;;;;;;;;;;20.20;68.60;;;;;;5073137;28;19908;-68
2021/09/19 01:38:51;;;;;;;;;;;20.20;67.80;;;;;;5073354;28;19915;-69
2021/09/19 01:41:22;;;;;;;;;;;20.10;67.50;;;;;;5072739;28;19908;-68
2021/09/19 01:43:49;;;;;;;;;;;20.00;68.40;;;;;;5072680;28;19939;-68
2021/09/19 01:46:16;;;;;;;;;;;20.00;67.20;;;;;;5072999;28;20492;-70
2021/09/19 01:48:43;;;;;;;;;;;19.90;67.30;;;;;;5073017;28;19908;-69
2021/09/19 01:51:10;;;;;;;;;;;19.70;66.70;;;;;;5073114;28;19920;-68
2021/09/19 01:53:38;;;;;;;;;;;19.60;66.50;;;;;;5073064;28;19909;-69
2021/09/19 01:56:06;;;;;;;;;;;19.70;67.00;;;;;;5072453;28;19908;-68
2021/09/19 01:58:46;;;;;;;;;;;19.70;65.40;;;;;;5072780;28;19961;-67
2021/09/19 02:01:13;;;;;;;;;;;19.90;66.20;;;;;;5072776;28;20279;-68
2021/09/19 02:03:40;;;;;;;;;;;20.10;64.70;;;;;;5070990;28;20007;-68
2021/09/19 02:06:08;;;;;;;;;;;20.00;63.10;;;;;;5072787;28;20295;-69
2021/09/19 02:08:36;;;;;;;;;;;20.10;63.30;;;;;;5072778;28;20385;-68
2021/09/19 02:11:07;;;;;;;;;;;20.10;64.80;;;;;;5072110;28;20043;-67
2021/09/19 02:13:34;;;;;;;;;;;20.20;65.20;;;;;;5072208;28;19908;-68
2021/09/19 02:16:01;;;;;;;;;;;20.40;63.10;;;;;;5072670;28;19913;-67
2021/09/19 02:18:27;;;;;;;;;;;20.40;62.20;;;;;;5072412;28;19924;-68
2021/09/19 02:20:55;;;;;;;;;;;20.30;62.90;;;;;;5072609;28;19931;-68
2021/09/19 02:23:25;;;;;;;;;;;20.30;63.10;;;;;;5072710;28;19917;-68
2021/09/19 02:25:52;;;;;;;;;;;20.30;62.30;;;;;;5071921;28;19933;-68
2021/09/19 02:28:18;;;;;;;;;;;20.20;63.00;;;;;;5072298;28;20382;-68
2021/09/19 02:30:46;;;;;;;;;;;20.10;62.70;;;;;;5072581;28;19908;-68
2021/09/19 02:33:13;;;;;;;;;;;20.10;62.70;;;;;;5072367;28;19912;-68
2021/09/19 02:35:40;;;;;;;;;;;20.20;63.60;;;;;;5072310;28;19909;-68
2021/09/19 02:38:07;;;;;;;;;;;20.30;64.10;;;;;;5072558;28;19962;-69
2021/09/19 02:40:35;;;;;;;;;;;20.30;61.90;;;;;;5072182;28;20260;-69
2021/09/19 02:43:01;;;;;;;;;;;20.30;61.80;;;;;;5072014;28;19916;-69
2021/09/19 02:45:28;;;;;;;;;;;20.20;64.40;;;;;;5072362;28;19912;-71
2021/09/19 02:47:55;;;;;;;;;;;20.50;63.10;;;;;;5072208;28;19916;-71
2021/09/19 02:50:23;;;;;;;;;;;20.50;61.50;;;;;;5072518;28;19944;-67
2021/09/19 02:52:50;;;;;;;;;;;20.40;63.50;;;;;;5072269;28;19908;-71
2021/09/19 02:55:17;;;;;;;;;;;20.60;61.60;;;;;;5071674;28;20355;-70
2021/09/19 02:57:47;;;;;;;;;;;20.60;60.00;;;;;;5071730;28;19915;-69
2021/09/19 03:00:15;;;;;;;;;;;20.70;62.10;;;;;;5072338;28;20386;-70
2021/09/19 03:02:43;;;;;;;;;;;20.60;61.30;;;;;;5073523;28;19940;-70
2021/09/19 03:05:10;;;;;;;;;;;20.50;63.40;;;;;;5074156;28;20089;-71
2021/09/19 03:07:37;;;;;;;;;;;20.80;60.50;;;;;;5072921;28;19961;-70
2021/09/19 03:10:05;;;;;;;;;;;20.70;60.40;;;;;;5072405;28;19908;-69
2021/09/19 03:12:32;;;;;;;;;;;20.80;58.40;;;;;;5071797;28;19963;-70
2021/09/19 03:14:58;;;;;;;;;;;20.70;59.30;;;;;;5075888;28;19915;-70
2021/09/19 03:17:25;;;;;;;;;;;20.70;57.20;;;;;;5075718;28;19913;-69
2021/09/19 03:19:52;;;;;;;;;;;20.70;58.00;;;;;;5075960;28;19908;-69
2021/09/19 03:22:19;;;;;;;;;;;20.90;58.90;;;;;;5075817;28;19926;-70
2021/09/19 03:24:45;;;;;;;;;;;20.90;59.10;;;;;;5076264;28;19909;-69
2021/09/19 03:27:12;;;;;;;;;;;20.90;61.20;;;;;;5075748;28;19943;-69
2021/09/19 03:29:39;;;;;;;;;;;20.90;60.30;;;;;;5075870;28;19966;-69
2021/09/19 03:32:05;;;;;;;;;;;20.90;59.30;;;;;;5075979;28;19915;-69
2021/09/19 03:34:35;;;;;;;;;;;20.80;59.70;;;;;;5075594;28;19917;-70
2021/09/19 03:37:02;;;;;;;;;;;20.80;60.20;;;;;;5075427;28;20007;-70
2021/09/19 03:39:29;;;;;;;;;;;20.80;60.10;;;;;;5075629;28;19912;-70
2021/09/19 03:41:55;;;;;;;;;;;21.00;58.30;;;;;;5075586;28;20143;-69
2021/09/19 03:44:22;;;;;;;;;;;21.00;58.30;;;;;;5075334;28;20330;-69
2021/09/19 03:46:49;;;;;;;;;;;20.80;58.30;;;;;;5075630;28;20268;-70
2021/09/19 03:49:15;;;;;;;;;;;20.80;58.80;;;;;;5075458;28;19913;-70
2021/09/19 03:51:42;;;;;;;;;;;20.80;58.90;;;;;;5075392;28;20314;-70
2021/09/19 03:54:09;;;;;;;;;;;21.00;57.90;;;;;;5075577;28;20401;-70
2021/09/19 03:56:36;;;;;;;;;;;21.00;58.10;;;;;;5075487;28;19916;-69
2021/09/19 03:59:02;;;;;;;;;;;21.00;59.10;;;;;;5107771;28;19916;-69
2021/09/19 04:01:29;;;;;;;;;;;21.00;56.30;;;;;;5075281;28;19909;-69
2021/09/19 04:03:56;;;;;;;;;;;20.90;55.40;;;;;;5075187;28;20350;-71
2021/09/19 04:06:23;;;;;;;;;;;20.90;58.60;;;;;;5075447;28;19951;-70
2021/09/19 04:08:50;;;;;;;;;;;20.90;56.50;;;;;;5075446;28;19938;-72
2021/09/19 04:11:17;;;;;;;;;;;21.00;57.70;;;;;;5075157;28;19919;-70
2021/09/19 04:13:43;;;;;;;;;;;21.10;55.80;;;;;;5074711;28;20026;-70
2021/09/19 04:16:10;;;;;;;;;;;21.10;57.90;;;;;;5072806;28;20362;-68
2021/09/19 04:18:36;;;;;;;;;;;21.20;55.70;;;;;;5072982;28;20387;-70
2021/09/19 04:21:03;;;;;;;;;;;21.20;55.80;;;;;;5072758;28;19912;-70
2021/09/19 04:23:30;;;;;;;;;;;21.20;56.20;;;;;;5072889;28;19920;-68
2021/09/19 04:25:58;;;;;;;;;;;21.30;57.50;;;;;;5104381;28;20202;-69
2021/09/19 04:28:25;;;;;;;;;;;21.30;57.10;;;;;;5072585;28;19955;-69
2021/09/19 04:30:51;;;;;;;;;;;21.30;55.70;;;;;;5072203;28;19919;-70
2021/09/19 04:33:18;;;;;;;;;;;21.20;55.70;;;;;;5072955;28;19912;-70
2021/09/19 04:35:45;;;;;;;;;;;21.30;54.90;;;;;;5072455;28;20409;-70
2021/09/19 04:38:13;;;;;;;;;;;21.30;57.80;;;;;;5074661;28;20389;-71
2021/09/19 04:40:44;;;;;;;;;;;21.30;54.70;;;;;;5075284;28;20007;-70
2021/09/19 04:43:12;;;;;;;;;;;21.30;55.40;;;;;;5074302;28;19927;-70
2021/09/19 04:45:42;;;;;;;;;;;21.10;56.00;;;;;;5071796;28;19913;-70
2021/09/19 04:48:08;;;;;;;;;;;20.90;57.20;;;;;;5072466;28;19909;-70
2021/09/19 04:50:35;;;;;;;;;;;21.00;54.90;;;;;;5070572;28;19981;-70
2021/09/19 04:53:02;;;;;;;;;;;20.90;55.30;;;;;;5072535;28;19908;-69
2021/09/19 04:55:29;;;;;;;;;;;21.00;56.30;;;;;;5072099;28;19909;-71
2021/09/19 04:57:55;;;;;;;;;;;21.10;57.50;;;;;;5072077;28;19908;-70
2021/09/19 05:00:22;;;;;;;;;;;21.10;58.10;;;;;;5071460;28;20389;-69
2021/09/19 05:02:50;;;;;;;;;;;21.20;56.60;;;;;;5072204;28;20493;-70
2021/09/19 05:05:16;;;;;;;;;;;21.10;57.00;;;;;;5072097;28;20389;-69
2021/09/19 05:07:43;;;;;;;;;;;21.10;56.70;;;;;;5071382;28;20003;-70
2021/09/19 05:10:10;;;;;;;;;;;21.30;55.50;;;;;;5072050;28;20003;-69
2021/09/19 05:12:36;;;;;;;;;;;21.20;55.90;;;;;;5072079;28;20299;-70
2021/09/19 05:15:03;;;;;;;;;;;21.20;56.00;;;;;;5072209;28;19916;-70
2021/09/19 05:17:30;;;;;;;;;;;21.20;56.60;;;;;;5071897;28;20363;-70
2021/09/19 05:19:57;;;;;;;;;;;21.20;55.50;;;;;;5071815;28;19908;-70
2021/09/19 05:22:23;;;;;;;;;;;21.00;55.50;;;;;;5071385;28;19920;-71
2021/09/19 05:24:50;;;;;;;;;;;21.10;57.60;;;;;;5071624;28;19916;-70
2021/09/19 05:27:17;;;;;;;;;;;21.20;56.80;;;;;;5071847;28;20314;-71
2021/09/19 05:29:43;;;;;;;;;;;21.20;56.50;;;;;;5071632;28;19924;-71
2021/09/19 05:32:10;;;;;;;;;;;21.20;56.90;;;;;;5071712;28;19912;-69
2021/09/19 05:34:36;;;;;;;;;;;21.20;54.90;;;;;;5071637;28;19999;-70
2021/09/19 05:37:06;;;;;;;;;;;21.30;54.70;;;;;;5071318;28;19915;-70
2021/09/19 05:39:33;;;;;;;;;;;21.30;54.30;;;;;;5071240;28;19912;-70
2021/09/19 05:42:00;;;;;;;;;;;21.40;53.90;;;;;;5071491;28;19918;-70
2021/09/19 05:44:27;;;;;;;;;;;21.30;54.40;;;;;;5071571;28;19939;-71
2021/09/19 05:46:54;;;;;;;;;;;21.10;55.80;;;;;;5070947;28;19909;-71
2021/09/19 05:49:20;;;;;;;;;;;21.20;54.90;;;;;;5071044;28;19916;-71
2021/09/19 05:51:47;;;;;;;;;;;21.10;55.30;;;;;;5070950;28;19916;-71
2021/09/19 05:54:13;;;;;;;;;;;21.10;54.80;;;;;;5071116;28;19912;-70
2021/09/19 05:56:40;;;;;;;;;;;21.00;54.70;;;;;;5071291;28;19999;-71
2021/09/19 05:59:09;;;;;;;;;;;21.00;55.10;;;;;;5071462;28;20338;-70
2021/09/19 06:01:36;;;;;;;;;;;21.00;56.30;;;;;;5070584;28;19923;-70
2021/09/19 06:04:02;;;;;;;;;;;21.10;55.00;;;;;;5071081;28;20023;-71
2021/09/19 06:06:29;;;;;;;;;;;21.00;55.30;;;;;;5070975;28;19915;-71
2021/09/19 06:08:56;;;;;;;;;;;20.90;56.30;;;;;;5070934;28;19912;-71
2021/09/19 06:11:22;;;;;;;;;;;20.90;57.00;;;;;;5071223;28;20429;-71
2021/09/19 06:13:49;;;;;;;;;;;21.00;55.00;;;;;;5071624;28;19915;-70
2021/09/19 06:16:16;;;;;;;;;;;21.20;55.40;;;;;;5074015;28;20011;-70
2021/09/19 06:18:42;;;;;;;;;;;21.00;56.60;;;;;;5074774;28;19919;-70
2021/09/19 06:21:09;;;;;;;;;;;21.00;56.00;;;;;;5070960;28;19908;-70
2021/09/19 06:23:36;;;;;;;;;;;20.90;56.00;;;;;;5070345;28;19920;-71
2021/09/19 06:26:03;;;;;;;;;;;20.80;55.50;;;;;;5070341;28;19916;-70
2021/09/19 06:28:30;;;;;;;;;;;20.80;55.70;;;;;;5070807;28;19909;-71
2021/09/19 06:30:56;;;;;;;;;;;20.80;56.50;;;;;;5070671;28;20290;-70
2021/09/19 06:33:25;;;;;;;;;;;20.70;55.90;;;;;;5070654;28;19924;-71
2021/09/19 06:35:52;;;;;;;;;;;20.70;56.10;;;;;;5070308;28;19908;-70
2021/09/19 06:38:19;;;;;;;;;;;20.70;54.60;;;;;;5070585;28;20440;-70
2021/09/19 06:40:46;;;;;;;;;;;20.70;54.70;;;;;;5070283;28;19916;-70
2021/09/19 06:43:12;;;;;;;;;;;20.60;54.90;;;;;;5070555;28;19936;-71
2021/09/19 06:45:39;;;;;;;;;;;20.60;56.10;;;;;;5070350;28;19908;-71
2021/09/19 06:48:05;;;;;;;;;;;20.80;55.90;;;;;;5069959;28;19913;-71
2021/09/19 06:50:32;;;;;;;;;;;20.70;55.10;;;;;;5070459;28;19984;-69
2021/09/19 06:53:01;;;;;;;;;;;20.50;55.30;;;;;;5070200;28;19944;-70
2021/09/19 06:55:28;;;;;;;;;;;20.40;56.30;;;;;;5070379;28;20283;-69
2021/09/19 06:57:55;;;;;;;;;;;20.50;54.40;;;;;;5070355;28;19908;-70
2021/09/19 07:00:22;;;;;;;;;;;20.40;55.00;;;;;;5070486;28;19909;-70
2021/09/19 07:02:49;;;;;;;;;;;20.50;56.00;;;;;;5070600;28;20327;-70
2021/09/19 07:05:16;;;;;;;;;;;20.50;54.60;;;;;;5069666;28;19916;-70
2021/09/19 07:07:42;;;;;;;;;;;20.30;53.90;;;;;;5070029;28;19912;-70
2021/09/19 07:10:09;;;;;;;;;;;20.20;55.50;;;;;;5070261;28;19913;-69
2021/09/19 07:12:36;;;;;;;;;;;20.00;57.10;;;;;;5070222;28;19966;-70
2021/09/19 07:15:04;;;;;;;;;;;20.00;55.70;;;;;;5070201;28;19984;-69
2021/09/19 07:17:30;;;;;;;;;;;20.20;53.70;;;;;;5069911;28;19916;-73
2021/09/19 07:19:59;;;;;;;;;;;20.30;54.60;;;;;;5069967;28;19965;-70
2021/09/19 07:22:26;;;;;;;;;;;20.10;55.10;;;;;;5070117;28;19975;-71
2021/09/19 07:24:53;;;;;;;;;;;20.00;55.60;;;;;;5070225;28;19924;-72
2021/09/19 07:27:20;;;;;;;;;;;19.90;55.50;;;;;;5070125;28;20000;-70
2021/09/19 07:29:47;;;;;;;;;;;20.00;54.40;;;;;;5069987;28;19909;-71
2021/09/19 07:32:14;;;;;;;;;;;20.00;54.00;;;;;;5070176;28;19909;-70
2021/09/19 07:34:41;;;;;;;;;;;20.00;56.00;;;;;;5070040;28;19916;-70
2021/09/19 07:37:08;;;;;;;;;;;19.80;54.70;;;;;;5070071;28;19913;-69
2021/09/19 07:39:36;;;;;;;;;;;19.80;54.70;;;;;;5069862;28;19916;-69
2021/09/19 07:42:03;;;;;;;;;;;19.80;54.90;;;;;;5070251;28;20405;-70
2021/09/19 07:44:29;;;;;;;;;;;19.70;56.20;;;;;;5069659;28;19924;-69
2021/09/19 07:46:56;;;;;;;;;;;19.60;56.40;;;;;;5102142;28;19913;-70
2021/09/19 07:49:23;;;;;;;;;;;19.50;56.90;;;;;;5069614;28;19974;-70
2021/09/19 07:51:50;;;;;;;;;;;19.50;57.60;;;;;;5070991;28;19916;-70
2021/09/19 07:54:18;;;;;;;;;;;19.40;56.50;;;;;;5072338;28;20359;-70
2021/09/19 07:56:45;;;;;;;;;;;19.30;57.80;;;;;;5072345;28;19921;-70
2021/09/19 07:59:12;;;;;;;;;;;19.30;58.20;;;;;;5070332;28;20279;-69
2021/09/19 08:01:38;;;;;;;;;;;19.20;56.70;;;;;;5072220;28;19919;-70
2021/09/19 08:04:05;;;;;;;;;;;19.30;55.60;;;;;;5073256;28;19917;-70
2021/09/19 08:06:32;;;;;;;;;;;19.30;55.10;;;;;;5073595;28;19912;-70
2021/09/19 08:08:58;;;;;;;;;;;19.40;56.00;;;;;;5073295;28;19920;-69
2021/09/19 08:11:25;;;;;;;;;;;19.40;55.50;;;;;;5072670;28;19912;-70
2021/09/19 08:13:56;;;;;;;;;;;19.30;55.50;;;;;;5072891;28;19913;-70
2021/09/19 08:16:22;;;;;;;;;;;19.30;56.60;;;;;;5073915;28;19920;-71
2021/09/19 08:18:49;;;;;;;;;;;19.40;55.30;;;;;;5074934;28;20295;-69
2021/09/19 08:21:16;;;;;;;;;;;19.30;56.10;;;;;;5075360;28;19908;-69
2021/09/19 08:23:43;;;;;;;;;;;19.30;55.80;;;;;;5074848;28;19927;-68
2021/09/19 08:26:09;;;;;;;;;;;19.30;57.10;;;;;;5074831;28;20411;-69
2021/09/19 08:28:36;;;;;;;;;;;19.20;56.00;;;;;;5074993;28;19912;-69
2021/09/19 08:31:02;;;;;;;;;;;19.10;57.60;;;;;;5075005;28;19983;-70
2021/09/19 08:33:30;;;;;;;;;;;19.10;57.40;;;;;;5074985;28;19915;-69
2021/09/19 08:35:57;;;;;;;;;;;19.00;57.40;;;;;;5074798;28;19944;-70
2021/09/19 08:38:23;;;;;;;;;;;19.00;56.80;;;;;;5074197;28;19908;-70
2021/09/19 08:40:51;;;;;;;;;;;19.00;56.60;;;;;;5074573;28;20371;-70
2021/09/19 08:43:18;;;;;;;;;;;19.00;56.20;;;;;;5074490;28;19931;-70
2021/09/19 08:45:49;;;;;;;;;;;18.90;56.90;;;;;;5074449;28;19935;-69
2021/09/19 08:48:20;;;;;;;;;;;18.90;56.20;;;;;;5073140;28;19908;-70
2021/09/19 08:50:49;;;;;;;;;;;18.80;57.70;;;;;;5074300;28;19924;-70
2021/09/19 08:53:15;;;;;;;;;;;18.80;58.30;;;;;;5073753;28;19915;-69
2021/09/19 08:55:43;;;;;;;;;;;18.80;56.60;;;;;;5074268;28;19915;-70
2021/09/19 08:58:10;;;;;;;;;;;18.80;56.10;;;;;;5074377;28;19909;-69
2021/09/19 09:00:42;;;;;;;;;;;18.80;56.10;;;;;;5074347;28;19913;-70
2021/09/19 09:03:11;;;;;;;;;;;18.80;56.70;;;;;;5074146;28;19913;-70
2021/09/19 09:05:37;;;;;;;;;;;18.70;57.00;;;;;;5073851;28;20185;-69
2021/09/19 09:08:04;;;;;;;;;;;18.70;57.00;;;;;;5073442;28;19909;-70
2021/09/19 09:10:33;;;;;;;;;;;18.70;57.40;;;;;;5074127;28;19915;-70
2021/09/19 09:13:00;;;;;;;;;;;18.60;57.40;;;;;;5073974;28;19995;-70
2021/09/19 09:15:34;;;;;;;;;;;18.60;57.30;;;;;;5074034;28;20011;-70
2021/09/19 09:18:04;;;;;;;;;;;18.60;58.20;;;;;;5070995;28;20346;-70
2021/09/19 09:20:47;;;;;;;;;;;18.50;56.70;;;;;;5071745;28;20395;-70
2021/09/19 09:23:23;;;;;;;;;;;18.50;58.30;;;;;;5071365;28;19920;-70
2021/09/19 09:26:09;;;;;;;;;;;18.40;58.80;;;;;;5071670;28;19912;-70
2021/09/19 09:28:42;;;;;;;;;;;18.40;58.30;;;;;;5071771;28;19916;-69
2021/09/19 09:31:09;;;;;;;;;;;18.30;57.40;;;;;;5073522;28;19912;-69
2021/09/19 09:33:36;;;;;;;;;;;18.30;58.50;;;;;;5073457;28;19908;-70
2021/09/19 09:36:08;;;;;;;;;;;18.30;58.40;;;;;;5073830;28;19916;-70
2021/09/19 09:38:36;;;;;;;;;;;18.40;59.20;;;;;;5073749;28;19912;-69
2021/09/19 09:41:05;;;;;;;;;;;18.30;59.50;;;;;;5073669;28;19948;-70
2021/09/19 09:43:34;;;;;;;;;;;18.20;59.30;;;;;;5072232;28;20078;-70
2021/09/19 09:46:11;;;;;;;;;;;18.20;59.80;;;;;;5071297;28;19915;-70
2021/09/19 09:48:38;;;;;;;;;;;18.20;60.20;;;;;;5071127;28;20256;-70
2021/09/19 09:51:20;;;;;;;;;;;18.30;60.70;;;;;;5071074;28;19920;-69
2021/09/19 09:53:54;;;;;;;;;;;18.20;60.50;;;;;;5070396;28;19915;-69
2021/09/19 09:56:23;;;;;;;;;;;18.20;59.70;;;;;;5070797;28;20232;-69
2021/09/19 09:58:51;;;;;;;;;;;18.20;61.50;;;;;;5071225;28;19912;-68
2021/09/19 10:01:18;;;;;;;;;;;18.10;61.10;;;;;;5103550;28;19920;-69
2021/09/19 10:03:45;;;;;;;;;;;18.10;60.90;;;;;;5070606;28;19952;-68
2021/09/19 10:06:12;;;;;;;;;;;18.10;60.60;;;;;;5070895;28;19962;-69
2021/09/19 10:08:40;;;;;;;;;;;18.00;62.80;;;;;;5069828;28;19912;-68
2021/09/19 10:11:07;;;;;;;;;;;18.10;61.00;;;;;;5070998;28;19936;-69
2021/09/19 10:13:36;;;;;;;;;;;18.10;60.90;;;;;;5070618;28;19954;-68
2021/09/19 10:16:03;;;;;;;;;;;17.90;61.80;;;;;;5070714;28;19912;-68
2021/09/19 10:18:30;;;;;;;;;;;17.90;62.50;;;;;;5070767;28;19916;-68
2021/09/19 10:21:00;;;;;;;;;;;17.90;63.30;;;;;;5070644;28;19909;-68
2021/09/19 10:23:32;;;;;;;;;;;17.90;62.40;;;;;;5067856;28;19962;-69
2021/09/19 10:26:06;;;;;;;;;;;17.90;61.60;;;;;;5070935;28;19912;-68
2021/09/19 10:28:33;;;;;;;;;;;17.80;62.50;;;;;;5070712;28;19916;-69
2021/09/19 10:31:09;;;;;;;;;;;17.80;63.00;;;;;;5070759;28;19956;-69
2021/09/19 10:33:39;;;;;;;;;;;17.80;62.00;;;;;;5070428;28;19912;-68
2021/09/19 10:36:11;;;;;;;;;;;17.80;61.70;;;;;;5070130;28;19909;-69
2021/09/19 10:38:40;;;;;;;;;;;17.80;61.60;;;;;;5070008;28;19909;-69
2021/09/19 10:41:14;;;;;;;;;;;17.80;62.70;;;;;;5070403;28;19954;-69
2021/09/19 10:43:53;;;;;;;;;;;17.70;62.30;;;;;;5070264;28;19917;-68
2021/09/19 10:46:34;;;;;;;;;;;17.70;63.40;;;;;;5070525;28;19915;-69
2021/09/19 10:49:16;;;;;;;;;;;17.70;64.80;;;;;;5069887;28;19951;-69
2021/09/19 10:51:58;;;;;;;;;;;17.60;63.20;;;;;;5069724;28;19921;-68
2021/09/19 10:55:00;;;;;;;;;;;17.60;63.30;;;;;;5070158;28;19912;-69
2021/09/19 10:57:34;;;;;;;;;;;17.60;63.90;;;;;;5047740;28;19917;-69
2021/09/19 11:00:14;;;;;;;;;;;17.50;64.30;;;;;;5066814;28;19935;-69
2021/09/19 11:02:42;;;;;;;;;;;17.50;63.60;;;;;;5070002;28;20006;-68
2021/09/19 11:05:21;;;;;;;;;;;17.50;63.70;;;;;;5070156;28;20050;-69
2021/09/19 11:07:49;;;;;;;;;;;17.50;64.20;;;;;;5069959;28;20307;-69
2021/09/19 11:10:16;;;;;;;;;;;17.40;65.40;;;;;;5071804;28;19913;-69
2021/09/19 11:12:51;;;;;;;;;;;17.30;65.20;;;;;;5071755;28;20007;-69
2021/09/19 11:15:25;;;;;;;;;;;17.30;64.00;;;;;;5070395;28;19913;-68
2021/09/19 11:17:52;;;;;;;;;;;17.30;63.80;;;;;;5069686;28;19912;-69
2021/09/19 11:20:21;;;;;;;;;;;17.20;64.70;;;;;;5069962;28;19921;-69
2021/09/19 11:22:50;;;;;;;;;;;17.20;64.30;;;;;;5069457;28;20397;-70
2021/09/19 11:25:18;;;;;;;;;;;17.10;64.20;;;;;;5070044;28;19921;-69
2021/09/19 11:27:46;;;;;;;;;;;17.10;64.80;;;;;;5069313;28;19908;-69
2021/09/19 11:30:14;;;;;;;;;;;17.10;64.80;;;;;;5069931;28;19916;-69
2021/09/19 11:32:40;;;;;;;;;;;17.00;65.30;;;;;;5069960;28;20327;-69
2021/09/19 11:35:08;;;;;;;;;;;17.00;65.10;;;;;;5072273;28;19912;-70
2021/09/19 11:37:35;;;;;;;;;;;17.00;65.30;;;;;;5105570;28;20389;-69
2021/09/19 11:40:05;;;;;;;;;;;17.00;65.70;;;;;;5073349;28;20271;-70
2021/09/19 11:42:33;;;;;;;;;;;16.90;65.90;;;;;;5073722;28;19908;-70
2021/09/19 11:45:00;;;;;;;;;;;16.90;65.60;;;;;;5073628;28;19908;-69
2021/09/19 11:47:26;;;;;;;;;;;16.90;66.20;;;;;;5073617;28;19909;-68
2021/09/19 11:49:54;;;;;;;;;;;16.90;65.80;;;;;;5073000;28;19924;-69
2021/09/19 11:52:21;;;;;;;;;;;16.90;66.10;;;;;;5073196;28;20350;-70
2021/09/19 11:54:48;;;;;;;;;;;16.90;66.30;;;;;;5072897;28;19962;-69
2021/09/19 11:57:15;;;;;;;;;;;16.80;66.50;;;;;;5073531;28;20286;-71
2021/09/19 11:59:45;;;;;;;;;;;16.80;67.00;;;;;;5073641;28;19998;-69
2021/09/19 12:02:13;;;;;;;;;;;16.80;67.60;;;;;;5073418;28;19916;-70
2021/09/19 12:04:43;;;;;;;;;;;16.70;67.50;;;;;;5073168;28;20370;-69
2021/09/19 12:07:13;;;;;;;;;;;16.60;67.70;;;;;;5072356;28;19915;-69
2021/09/19 12:09:44;;;;;;;;;;;16.60;67.80;;;;;;5073191;28;19954;-70
2021/09/19 12:12:14;;;;;;;;;;;16.60;68.00;;;;;;5073425;28;19966;-69
2021/09/19 12:14:46;;;;;;;;;;;16.60;68.20;;;;;;5073202;28;19912;-70
2021/09/19 12:17:14;;;;;;;;;;;16.60;68.60;;;;;;5073155;28;19921;-69
2021/09/19 12:19:44;;;;;;;;;;;16.60;69.50;;;;;;5072300;28;19954;-69
2021/09/19 12:22:22;;;;;;;;;;;16.60;70.60;;;;;;5072403;28;19952;-69
2021/09/19 12:25:04;;;;;;;;;;;16.60;70.70;;;;;;5073145;28;19916;-70
2021/09/19 12:27:32;;;;;;;;;;;16.60;71.00;;;;;;5072610;28;20007;-70
2021/09/19 12:30:13;;;;;;;;;;;16.60;69.90;;;;;;5072703;28;19974;-69
2021/09/19 12:32:49;;;;;;;;;;;16.60;70.40;;;;;;5072355;28;19935;-69
2021/09/19 12:35:27;;;;;;;;;;;16.60;71.90;;;;;;5072481;28;19954;-69
2021/09/19 12:37:56;;;;;;;;;;;16.60;72.40;;;;;;5072660;28;19909;-69
2021/09/19 12:40:24;;;;;;;;;;;16.60;71.80;;;;;;5072852;28;20374;-69
2021/09/19 12:42:51;;;;;;;;;;;16.60;72.60;;;;;;5073170;28;19970;-69
2021/09/19 12:45:21;;;;;;;;;;;16.70;72.80;;;;;;5073277;28;19920;-68
2021/09/19 12:47:53;;;;;;;;;;;16.70;72.40;;;;;;5073764;28;19912;-69
2021/09/19 12:50:19;;;;;;;;;;;16.70;72.20;;;;;;5074356;28;19920;-69
2021/09/19 12:52:46;;;;;;;;;;;16.70;72.70;;;;;;5076090;28;20350;-70
2021/09/19 12:55:17;;;;;;;;;;;16.70;72.20;;;;;;5072004;28;19955;-70
2021/09/19 12:57:44;;;;;;;;;;;16.70;72.70;;;;;;5072455;28;19908;-70
2021/09/19 13:00:11;;;;;;;;;;;16.70;73.10;;;;;;5072244;28;20279;-68
2021/09/19 13:02:38;;;;;;;;;;;16.70;72.20;;;;;;5072548;28;19908;-69
2021/09/19 13:05:05;;;;;;;;;;;16.70;73.10;;;;;;5072460;28;20007;-70
2021/09/19 13:07:32;;;;;;;;;;;16.60;73.10;;;;;;5072135;28;19921;-68
2021/09/19 13:09:58;;;;;;;;;;;16.60;74.40;;;;;;5072592;28;19913;-69
2021/09/19 13:12:25;;;;;;;;;;;16.50;74.50;;;;;;5071435;28;20007;-69
2021/09/19 13:14:52;;;;;;;;;;;16.50;73.90;;;;;;5072069;28;19915;-70
2021/09/19 13:17:18;;;;;;;;;;;16.50;76.00;;;;;;5071915;28;19908;-68
2021/09/19 13:19:45;;;;;;;;;;;16.40;75.90;;;;;;5071853;28;20432;-69
2021/09/19 13:22:12;;;;;;;;;;;16.40;74.80;;;;;;5072164;28;20401;-68
2021/09/19 13:24:38;;;;;;;;;;;16.40;74.90;;;;;;5071751;28;19998;-69
2021/09/19 13:27:05;;;;;;;;;;;16.40;75.30;;;;;;5071862;28;20359;-69
2021/09/19 13:29:32;;;;;;;;;;;16.30;75.00;;;;;;5071833;28;19954;-69
2021/09/19 13:31:59;;;;;;;;;;;16.30;75.20;;;;;;5072107;28;19923;-69
2021/09/19 13:34:26;;;;;;;;;;;16.40;76.10;;;;;;5071858;28;20275;-69
2021/09/19 13:36:53;;;;;;;;;;;16.30;75.40;;;;;;5071773;28;20363;-69
2021/09/19 13:39:20;;;;;;;;;;;16.30;75.60;;;;;;5071352;28;19909;-69
2021/09/19 13:41:47;;;;;;;;;;;16.30;75.50;;;;;;5071494;28;20005;-69
2021/09/19 13:44:13;;;;;;;;;;;16.30;75.80;;;;;;5071595;28;20671;-70
2021/09/19 13:46:40;;;;;;;;;;;16.20;76.00;;;;;;5071645;28;19978;-69
2021/09/19 13:49:07;;;;;;;;;;;16.20;76.00;;;;;;5103669;28;19927;-70
2021/09/19 13:51:34;;;;;;;;;;;16.20;77.20;;;;;;5071067;28;19962;-69
2021/09/19 13:54:03;;;;;;;;;;;16.10;75.90;;;;;;5071461;28;19912;-70
2021/09/19 13:56:31;;;;;;;;;;;16.10;76.60;;;;;;5071440;28;19908;-70
2021/09/19 13:58:58;;;;;;;;;;;16.10;75.90;;;;;;5071453;28;20001;-68
2021/09/19 14:01:24;;;;;;;;;;;16.10;76.20;;;;;;5071400;28;19936;-69
2021/09/19 14:03:51;;;;;;;;;;;16.20;76.10;;;;;;5070456;28;20274;-69
2021/09/19 14:06:17;;;;;;;;;;;16.20;76.10;;;;;;5071193;28;19909;-70
2021/09/19 14:08:44;;;;;;;;;;;16.20;76.00;;;;;;5071165;28;20309;-69
2021/09/19 14:11:11;;;;;;;;;;;16.20;75.80;;;;;;5070984;28;20363;-70
2021/09/19 14:13:37;;;;;;;;;;;16.20;76.50;;;;;;5070909;28;19908;-70
2021/09/19 14:16:04;;;;;;;;;;;16.20;77.50;;;;;;5071049;28;20003;-70
2021/09/19 14:18:33;;;;;;;;;;;16.20;75.40;;;;;;5070504;28;19913;-69
2021/09/19 14:21:00;;;;;;;;;;;16.20;76.30;;;;;;5070862;28;20359;-70